Time;durP1;ratioP1;P1;durP2;ratioP2;P2;SDS_P1;SDS_P2;PMS_P1;PMS_P2;Temp;Humidity;BMP_temperature;BMP_pressure;BME280_temperature;BME280_humidity;BME280_pressure;Samples;Min_cycle;Max_cycle;Signal;HPM_P1;HPM_P2
2023/10/17 00:00:59;;;;;;;103.25;83.82;;;;;;;7.46;100.00;101999.75;4951743;28;20207;-48
2023/10/17 00:03:25;;;;;;;44.88;41.05;;;;;;;7.42;100.00;102001.53;4963402;28;20188;-49
2023/10/17 00:05:54;;;;;;;121.25;93.93;;;;;;;7.39;100.00;101997.09;4966620;28;20265;-48
2023/10/17 00:08:20;;;;;;;106.72;81.70;;;;;;;7.38;100.00;102005.09;4965055;28;20186;-48
2023/10/17 00:10:46;;;;;;;135.73;96.32;;;;;;;7.32;100.00;102000.69;4969997;28;20515;-50
2023/10/17 00:13:31;;;;;;;147.15;101.45;;;;;;;7.25;100.00;102006.97;4966419;28;20166;-50
2023/10/17 00:15:58;;;;;;;133.13;97.80;;;;;;;7.25;100.00;102009.63;4964963;28;20195;-48
2023/10/17 00:18:26;;;;;;;127.60;90.03;;;;;;;7.19;100.00;101999.91;4965211;28;20183;-49
2023/10/17 00:21:04;;;;;;;175.60;103.57;;;;;;;7.14;100.00;102007.00;4950634;28;20211;-50
2023/10/17 00:23:32;;;;;;;174.80;101.93;;;;;;;7.08;100.00;102007.03;4963392;28;20205;-49
2023/10/17 00:25:59;;;;;;;183.90;105.07;;;;;;;7.14;100.00;102014.13;4962989;28;20179;-51
2023/10/17 00:28:28;;;;;;;178.55;104.10;;;;;;;7.16;100.00;102012.34;4970707;28;20177;-48
2023/10/17 00:30:54;;;;;;;185.98;103.28;;;;;;;7.18;100.00;102013.22;4953473;28;20226;-48
2023/10/17 00:33:20;;;;;;;191.95;103.65;;;;;;;7.23;100.00;102019.41;4964794;28;20626;-48
2023/10/17 00:35:47;;;;;;;192.35;103.60;;;;;;;7.25;100.00;102006.97;4961977;28;20167;-48
2023/10/17 00:38:16;;;;;;;210.48;106.28;;;;;;;7.25;100.00;102008.75;4962852;28;20257;-49
2023/10/17 00:40:48;;;;;;;185.88;104.22;;;;;;;7.30;100.00;102015.81;4967694;28;20214;-49
2023/10/17 00:43:13;;;;;;;190.85;107.22;;;;;;;7.26;100.00;102005.16;4943870;28;20171;-49
2023/10/17 00:45:39;;;;;;;153.55;102.18;;;;;;;7.34;100.00;102003.34;4965940;28;20252;-48
2023/10/17 00:48:17;;;;;;;176.93;105.07;;;;;;;7.31;100.00;102003.38;4959222;28;20610;-48
2023/10/17 00:50:45;;;;;;;177.75;104.13;;;;;;;7.28;100.00;102006.97;4963432;28;20174;-48
2023/10/17 00:53:11;;;;;;;191.35;105.65;;;;;;;7.30;100.00;102010.47;4955036;28;20729;-48
2023/10/17 00:55:38;;;;;;;169.32;103.20;;;;;;;7.30;100.00;102006.94;4969673;28;20539;-47
2023/10/17 00:58:06;;;;;;;172.23;101.18;;;;;;;7.34;100.00;102006.91;4967599;28;20580;-50
2023/10/17 01:00:47;;;;;;;188.57;103.57;;;;;;;7.36;100.00;101997.09;4964980;28;20302;-49
2023/10/17 01:03:13;;;;;;;208.77;107.22;;;;;;;7.31;100.00;102001.59;4956283;28;20662;-48
2023/10/17 01:05:58;;;;;;;91.55;73.97;;;;;;;7.32;100.00;102002.47;4966203;28;20259;-52
2023/10/17 01:08:44;;;;;;;100.47;84.75;;;;;;;7.34;100.00;102004.22;4966965;28;20193;-48
2023/10/17 01:11:16;;;;;;;75.47;64.05;;;;;;;7.39;100.00;101997.09;4967770;28;20645;-52
2023/10/17 01:13:42;;;;;;;131.35;92.70;;;;;;;7.38;100.00;101995.31;4953757;28;20201;-50
2023/10/17 01:16:10;;;;;;;124.90;94.03;;;;;;;7.37;100.00;101990.03;4967611;28;20169;-49
2023/10/17 01:18:37;;;;;;;142.48;95.97;;;;;;;7.31;100.00;101993.59;4968021;28;20182;-49
2023/10/17 01:21:04;;;;;;;182.18;103.15;;;;;;;7.27;100.00;101991.84;4965183;28;20655;-47
2023/10/17 01:23:31;;;;;;;151.10;95.50;;;;;;;7.27;100.00;101996.28;4957463;28;20207;-49
2023/10/17 01:25:58;;;;;;;145.88;98.78;;;;;;;7.18;100.00;101992.78;4965647;28;20182;-49
2023/10/17 01:28:24;;;;;;;144.68;89.97;;;;;;;7.19;100.00;101991.00;4950956;28;20189;-50
2023/10/17 01:30:55;;;;;;;159.82;97.55;;;;;;;7.14;100.00;101999.00;4956760;28;20167;-48
2023/10/17 01:33:24;;;;;;;125.80;92.82;;;;;;;7.12;100.00;102003.47;4964958;28;20621;-47
2023/10/17 01:35:52;;;;;;;133.50;92.50;;;;;;;7.08;100.00;102007.03;4964902;28;20193;-50
2023/10/17 01:38:19;;;;;;;93.22;79.78;;;;;;;7.00;100.00;102001.75;4961874;28;20229;-50
2023/10/17 01:40:57;;;;;;;133.80;95.85;;;;;;;7.03;100.00;102008.84;4968832;28;20202;-50
2023/10/17 01:43:23;;;;;;;148.02;91.90;;;;;;;7.00;100.00;102000.88;4944283;28;20197;-48
2023/10/17 01:45:50;;;;;;;114.28;85.30;;;;;;;6.80;100.00;102011.63;4964225;28;20171;-50
2023/10/17 01:48:15;;;;;;;147.65;92.30;;;;;;;6.78;100.00;102000.09;4960643;28;20269;-50
2023/10/17 01:50:41;;;;;;;165.68;96.38;;;;;;;6.84;100.00;102001.81;4961314;28;20808;-47
2023/10/17 01:53:13;;;;;;;134.35;88.90;;;;;;;6.71;100.00;101987.66;4963286;28;20194;-48
2023/10/17 01:55:39;;;;;;;141.13;88.65;;;;;;;6.68;100.00;101991.22;4952242;28;20267;-49
2023/10/17 01:58:07;;;;;;;145.95;91.22;;;;;;;6.71;100.00;101993.91;4960622;28;20297;-50
2023/10/17 02:03:03;;;;;;;113.80;81.32;;;;;;;6.52;100.00;101990.41;4950165;28;20190;-48
2023/10/17 02:05:29;;;;;;;106.97;84.13;;;;;;;6.38;100.00;101987.78;4963345;28;20297;-48
2023/10/17 02:07:55;;;;;;;152.45;93.38;;;;;;;6.39;100.00;101986.00;4964186;28;20257;-49
2023/10/17 02:10:21;;;;;;;139.43;87.55;;;;;;;6.37;100.00;101995.75;4953230;28;20183;-50
2023/10/17 02:12:48;;;;;;;127.20;86.28;;;;;;;6.40;100.00;101991.28;4964040;28;20585;-49
2023/10/17 02:15:19;;;;;;;119.22;83.97;;;;;;;6.42;100.00;102004.59;4963162;28;20206;-50
2023/10/17 02:17:46;;;;;;;146.23;86.53;;;;;;;6.25;100.00;102007.28;4952741;28;20185;-50
2023/10/17 02:20:21;;;;;;;151.77;87.70;;;;;;;6.32;100.00;101997.53;4962803;28;20206;-50
2023/10/17 02:22:51;;;;;;;119.28;78.43;;;;;;;6.13;100.00;102005.53;4954764;28;20289;-48
2023/10/17 02:25:21;;;;;;;63.40;56.65;;;;;;;6.15;100.00;102002.88;4961486;28;20194;-51
2023/10/17 02:27:50;;;;;;;113.45;80.05;;;;;;;6.03;100.00;102011.75;4945423;28;20183;-48
2023/10/17 02:30:20;;;;;;;114.07;80.07;;;;;;;5.95;100.00;102011.78;4961802;28;20269;-52
2023/10/17 02:32:55;;;;;;;118.03;78.65;;;;;;;6.09;100.00;102019.72;4966242;28;20194;-49
2023/10/17 02:35:28;;;;;;;137.57;84.50;;;;;;;6.12;100.00;102011.78;4963590;28;20189;-49
2023/10/17 02:37:57;;;;;;;163.70;88.15;;;;;;;6.11;100.00;102017.09;4963942;28;20206;-47
2023/10/17 02:40:23;;;;;;;130.50;84.32;;;;;;;6.09;100.00;102022.41;4936828;28;20226;-48
2023/10/17 02:42:50;;;;;;;152.52;88.10;;;;;;;6.03;100.00;102021.50;4964990;28;20182;-48
2023/10/17 02:45:25;;;;;;;129.27;82.47;;;;;;;6.03;100.00;102027.72;4951955;28;20207;-47
2023/10/17 02:47:56;;;;;;;172.23;89.45;;;;;;;6.02;100.00;102025.94;4947122;28;20186;-48
2023/10/17 02:52:57;;;;;;;168.38;88.93;;;;;;;5.99;100.00;102025.94;4945480;28;20201;-48
2023/10/17 02:55:25;;;;;;;176.38;90.38;;;;;;;5.84;100.00;102031.22;4965582;28;20202;-50
2023/10/17 02:57:52;;;;;;;185.18;89.60;;;;;;;5.93;100.00;102024.16;4953688;28;20167;-48
2023/10/17 03:00:25;;;;;;;154.20;89.43;;;;;;;5.74;100.00;102023.25;4948959;28;20213;-49
2023/10/17 03:02:58;;;;;;;158.73;86.15;;;;;;;5.70;100.00;102041.84;4962845;28;20678;-49
2023/10/17 03:05:25;;;;;;;145.35;84.82;;;;;;;5.59;100.00;102033.84;4962822;28;20201;-49
2023/10/17 03:07:50;;;;;;;161.88;85.38;;;;;;;5.57;100.00;102038.28;4961336;28;20182;-48
2023/10/17 03:13:59;;;;;;;170.40;86.07;;;;;;;5.63;100.00;102040.06;4961145;28;20232;-47
2023/10/17 03:16:14;;;;;;;160.00;82.90;;;;;;;5.58;100.00;102048.94;4953152;28;20202;-50
2023/10/17 03:18:41;;;;;;;160.35;83.10;;;;;;;5.58;100.00;102048.03;4944532;28;20610;-51
2023/10/17 03:21:08;;;;;;;130.32;77.80;;;;;;;5.68;100.00;102039.19;4963390;28;20312;-48
2023/10/17 03:23:34;;;;;;;163.60;84.00;;;;;;;5.70;100.00;102050.69;4948739;28;20206;-50
2023/10/17 03:26:00;;;;;;;167.10;85.82;;;;;;;5.75;100.00;102045.38;4962930;28;20236;-48
2023/10/17 03:28:28;;;;;;;162.65;83.55;;;;;;;5.74;100.00;102048.94;4952312;28;20657;-50
2023/10/17 03:30:54;;;;;;;185.48;87.47;;;;;;;5.74;100.00;102051.59;4962267;28;20173;-49
2023/10/17 03:33:32;;;;;;;175.73;86.32;;;;;;;5.69;100.00;102045.41;4958172;28;20178;-49
2023/10/17 03:38:30;;;;;;;177.73;85.38;;;;;;;5.71;100.00;102048.97;4962527;28;20174;-49
2023/10/17 03:41:15;;;;;;;195.70;88.97;;;;;;;5.78;100.00;102045.41;4962675;28;20252;-47
2023/10/17 03:43:49;;;;;;;225.07;89.55;;;;;;;5.82;100.00;102048.97;4963893;28;20215;-49
2023/10/17 03:46:15;;;;;;;172.15;84.25;;;;;;;5.85;100.00;102049.84;4962963;28;20235;-48
2023/10/17 03:48:49;;;;;;;185.32;85.47;;;;;;;5.78;100.00;102054.28;4962949;28;20283;-49
2023/10/17 03:51:21;;;;;;;190.23;86.38;;;;;;;5.83;100.00;102058.72;4961719;28;20174;-49
2023/10/17 03:53:53;;;;;;;169.30;84.70;;;;;;;5.83;100.00;102054.28;4966648;28;20288;-51
2023/10/17 03:56:25;;;;;;;197.65;90.30;;;;;;;5.80;100.00;102064.03;4966494;28;20181;-49
2023/10/17 03:59:18;;;;;;;225.45;92.13;;;;;;;5.91;100.00;102056.97;4965278;28;20567;-48
2023/10/17 04:01:49;;;;;;;228.43;88.65;;;;;;;5.89;100.00;102050.75;4954912;28;20178;-48
2023/10/17 04:04:21;;;;;;;88.82;67.45;;;;;;;5.88;100.00;102043.63;4962437;28;20495;-48
2023/10/17 04:06:51;;;;;;;152.23;83.13;;;;;;;5.88;100.00;102048.97;4961854;28;20212;-48
2023/10/17 04:09:27;;;;;;;148.02;83.28;;;;;;;5.91;100.00;102035.69;4965196;28;20684;-50
2023/10/17 04:11:55;;;;;;;90.22;70.70;;;;;;;5.91;100.00;102043.66;4964030;28;20216;-49
2023/10/17 04:14:26;;;;;;;135.95;79.35;;;;;;;5.99;100.00;102036.56;4966525;28;20273;-47
2023/10/17 04:16:52;;;;;;;217.05;91.63;;;;;;;6.07;100.00;102040.13;4963159;28;20174;-50
2023/10/17 04:19:18;;;;;;;94.25;72.43;;;;;;;6.12;100.00;102045.44;4966088;28;20206;-50
2023/10/17 04:21:51;;;;;;;168.02;86.65;;;;;;;6.10;100.00;102039.25;4963680;28;20193;-48
2023/10/17 04:24:35;;;;;;;174.43;92.53;;;;;;;6.09;100.00;102038.34;4965290;28;20202;-48
2023/10/17 04:27:18;;;;;;;183.50;89.72;;;;;;;6.13;100.00;102031.28;4966951;28;20190;-48
2023/10/17 04:29:50;;;;;;;192.27;89.72;;;;;;;6.07;100.00;102032.16;4950462;28;20170;-50
2023/10/17 04:32:16;;;;;;;121.15;79.45;;;;;;;6.16;100.00;102032.13;4967768;28;20183;-50
2023/10/17 04:34:48;;;;;;;163.10;87.30;;;;;;;6.12;100.00;102041.03;4971513;28;20260;-49
2023/10/17 04:37:16;;;;;;;75.95;63.40;;;;;;;6.13;100.00;102025.94;4964746;28;20179;-50
2023/10/17 04:39:49;;;;;;;113.82;78.93;;;;;;;6.16;100.00;102037.47;4965748;28;20329;-49
2023/10/17 04:45:13;;;;;;;81.10;63.78;;;;;;;6.25;100.00;102036.56;4946545;28;20729;-48
2023/10/17 04:47:43;;;;;;;79.65;65.90;;;;;;;6.33;100.00;102029.47;4969882;28;20225;-49
2023/10/17 04:50:11;;;;;;;103.78;74.75;;;;;;;6.35;100.00;102037.47;4969617;28;20181;-48
2023/10/17 04:52:44;;;;;;;116.88;78.15;;;;;;;6.38;100.00;102032.13;4970707;28;20220;-50
2023/10/17 04:55:30;;;;;;;176.55;89.10;;;;;;;6.40;100.00;102027.69;4959323;28;20668;-47
2023/10/17 04:57:58;;;;;;;200.77;91.45;;;;;;;6.40;100.00;102025.91;4968475;28;20184;-48
2023/10/17 05:03:50;;;;;;;180.00;92.05;;;;;;;6.37;100.00;102011.72;4965579;28;20251;-49
2023/10/17 06:17:22;;;;;;;178.18;96.72;;;;;;;6.82;100.00;102052.44;4967288;28;20213;-49
2023/10/17 06:19:48;;;;;;;214.88;99.72;;;;;;;6.85;100.00;102049.78;4970928;28;20209;-48
2023/10/17 06:24:45;;;;;;;227.52;99.88;;;;;;;6.79;100.00;102050.66;4970727;28;20210;-49
2023/10/17 06:28:13;;;;;;;158.02;95.85;;;;;;;6.75;100.00;102054.22;4968273;28;20190;-48
2023/10/17 06:32:48;;;;;;;153.80;94.80;;;;;;;6.79;100.00;102057.78;4964783;28;20653;-48
2023/10/17 06:35:20;;;;;;;125.18;81.40;;;;;;;6.87;100.00;102065.75;4964639;28;20201;-48
2023/10/17 06:37:49;;;;;;;209.82;99.45;;;;;;;6.89;100.00;102066.66;4965385;28;20282;-50
2023/10/17 06:40:16;;;;;;;236.55;99.07;;;;;;;6.91;100.00;102065.75;4972000;28;20233;-50
2023/10/17 06:42:58;;;;;;;197.57;103.38;;;;;;;6.94;100.00;102065.72;4961853;28;20234;-48
2023/10/17 06:45:24;;;;;;;217.73;102.07;;;;;;;7.02;100.00;102057.72;4964934;28;20269;-50
2023/10/17 06:47:49;;;;;;;218.93;100.47;;;;;;;7.10;100.00;102060.34;4966217;28;20181;-49
2023/10/17 06:55:29;;;;;;;237.20;101.43;;;;;;;7.22;100.00;102058.50;4960985;28;20630;-48
2023/10/17 06:58:08;;;;;;;224.93;107.00;;;;;;;7.25;100.00;102054.06;4967408;28;20185;-48
2023/10/17 07:03:17;;;;;;;214.98;105.82;;;;;;;7.35;100.00;102054.00;4966364;28;20173;-48
2023/10/17 07:05:52;;;;;;;254.23;104.32;;;;;;;7.39;100.00;102049.53;4965186;28;20613;-49
2023/10/17 07:08:21;;;;;;;119.60;87.45;;;;;;;7.46;100.00;102050.41;4967956;28;20193;-48
2023/10/17 07:13:56;;;;;;;130.95;85.85;;;;;;;7.54;100.00;102048.56;4975660;28;20681;-47
2023/10/17 07:16:25;;;;;;;231.90;103.75;;;;;;;7.57;100.00;102052.09;4963768;28;20202;-49
2023/10/17 07:19:09;;;;;;;249.40;106.78;;;;;;;7.60;100.00;102049.41;4963733;28;20186;-48
2023/10/17 07:21:55;;;;;;;250.30;107.85;;;;;;;7.61;100.00;102050.31;4963546;28;20274;-47
2023/10/17 07:24:23;;;;;;;181.07;94.32;;;;;;;7.68;100.00;102057.38;4969456;28;20684;-47
2023/10/17 07:26:52;;;;;;;208.02;104.63;;;;;;;7.74;100.00;102049.34;4963334;28;20194;-47
2023/10/17 07:29:22;;;;;;;226.02;107.85;;;;;;;7.87;100.00;102059.91;4963417;28;20568;-47
2023/10/17 07:31:52;;;;;;;153.52;101.63;;;;;;;8.00;100.00;102059.81;4965733;28;20193;-47
2023/10/17 07:34:22;;;;;;;177.00;101.65;;;;;;;8.05;100.00;102065.13;4966313;28;20379;-48
2023/10/17 07:36:58;;;;;;;202.30;108.03;;;;;;;8.16;100.00;102052.56;4968260;28;20236;-48
2023/10/17 07:39:25;;;;;;;149.52;100.60;;;;;;;8.12;100.00;102056.16;4964430;28;20608;-49
2023/10/17 07:41:55;;;;;;;93.00;79.38;;;;;;;8.07;100.00;102066.00;4964727;28;20500;-47
2023/10/17 07:44:22;;;;;;;176.38;106.68;;;;;;;8.16;100.00;102060.56;4963345;28;20233;-47
2023/10/17 07:47:33;;;;;;;212.10;110.78;;;;;;;8.21;100.00;102061.41;4967703;28;20714;-48
2023/10/17 07:49:41;;;;;;;158.07;103.53;;;;;;;8.33;100.00;102060.44;4962942;28;20194;-49
2023/10/17 07:52:17;;;;;;;190.68;116.90;;;;;;;8.49;100.00;102053.19;4962078;28;20201;-48
2023/10/17 07:54:55;;;;;;;205.90;116.70;;;;;;;8.51;100.00;102045.16;4953183;28;20193;-48
2023/10/17 07:57:40;;;;;;;177.38;109.80;;;;;;;8.57;100.00;102051.31;4948071;28;20574;-49
2023/10/17 08:02:51;;;;;;;233.32;118.72;;;;;;;8.58;100.00;102041.53;4968488;28;20621;-48
2023/10/17 08:05:23;;;;;;;201.57;114.65;;;;;;;8.61;100.00;102045.03;4966574;28;20225;-49
2023/10/17 08:07:49;;;;;;;211.30;120.25;;;;;;;8.57;100.00;102047.75;4971043;28;20541;-48
2023/10/17 08:10:29;;;;;;;237.45;117.28;;;;;;;8.56;100.00;102037.97;4967511;28;20172;-47
2023/10/17 08:12:58;;;;;;;176.43;111.30;;;;;;;8.53;100.00;102033.56;4963291;28;20672;-47
2023/10/17 08:15:36;;;;;;;208.82;114.90;;;;;;;8.57;100.00;102035.31;4967786;28;20198;-47
2023/10/17 08:18:04;;;;;;;204.07;115.80;;;;;;;8.94;100.00;102023.28;4968413;28;20190;-49
2023/10/17 08:20:47;;;;;;;170.52;117.68;;;;;;;8.97;100.00;102026.81;4968995;28;20198;-48
2023/10/17 08:23:13;;;;;;;199.90;114.43;;;;;;;9.55;100.00;102026.94;4962763;28;20194;-50
2023/10/17 08:25:54;;;;;;;260.58;125.40;;;;;;;9.41;98.25;102024.47;4957313;28;20199;-48
2023/10/17 08:28:35;;;;;;;226.55;120.53;;;;;;;9.28;97.21;102010.38;4970717;28;20654;-48
2023/10/17 08:36:47;;;;;;;177.23;127.65;;;;;;;9.45;95.38;102011.03;4967125;28;20190;-50
2023/10/17 08:42:05;;;;;;;116.47;104.63;;;;;;;10.35;93.17;101994.41;4969656;28;20190;-50
2023/10/17 08:44:37;;;;;;;123.68;107.70;;;;;;;10.21;91.83;101994.63;4967596;28;20213;-51
2023/10/17 08:47:03;;;;;;;119.22;107.57;;;;;;;10.21;91.14;101988.38;4964774;28;20182;-52
2023/10/17 08:49:31;;;;;;;136.35;121.78;;;;;;;10.14;90.67;101992.94;4967110;28;20217;-52
2023/10/17 08:51:59;;;;;;;176.05;138.00;;;;;;;10.14;90.83;101989.41;4970692;28;20205;-49
2023/10/17 08:54:29;;;;;;;150.65;130.18;;;;;;;10.08;90.96;101988.59;4967260;28;20206;-52
2023/10/17 08:56:55;;;;;;;126.35;113.95;;;;;;;9.93;90.83;101986.19;4948916;28;20178;-52
2023/10/17 08:59:58;;;;;;;158.65;128.00;;;;;;;9.90;91.25;101988.91;4965783;28;20246;-50
2023/10/17 09:05:00;;;;;;;171.25;129.25;;;;;;;9.93;92.56;102001.34;4949481;28;20309;-52
2023/10/17 09:07:33;;;;;;;165.88;133.98;;;;;;;9.89;92.25;102008.56;4966339;28;20627;-51
2023/10/17 09:10:04;;;;;;;220.68;147.30;;;;;;;9.89;91.98;102008.56;4965689;28;20178;-50
2023/10/17 09:12:36;;;;;;;146.38;124.80;;;;;;;9.91;91.63;101998.72;4968331;28;20182;-50
2023/10/17 09:15:04;;;;;;;190.07;137.07;;;;;;;9.87;91.14;101994.31;4969133;28;20216;-50
2023/10/17 09:17:30;;;;;;;218.80;143.23;;;;;;;9.99;91.82;101991.44;4964246;28;20278;-50
2023/10/17 09:20:11;;;;;;;205.93;142.73;;;;;;;9.97;92.05;101998.63;4966924;28;20234;-50
2023/10/17 09:22:38;;;;;;;222.35;144.80;;;;;;;9.80;91.95;101998.00;4966329;28;20189;-50
2023/10/17 09:25:22;;;;;;;203.20;142.52;;;;;;;9.59;92.17;102005.44;4967631;28;20680;-50
2023/10/17 09:27:50;;;;;;;214.25;140.45;;;;;;;10.14;92.90;102000.97;4969483;28;20205;-49
2023/10/17 09:30:17;;;;;;;192.55;140.90;;;;;;;10.46;92.61;101995.06;4968155;28;20186;-50
2023/10/17 09:32:42;;;;;;;115.43;103.45;;;;;;;10.69;91.45;101996.41;4967796;28;20188;-50
2023/10/17 09:35:15;;;;;;;147.25;131.50;;;;;;;10.79;90.56;101989.97;4972216;28;20217;-51
2023/10/17 09:37:44;;;;;;;138.15;124.05;;;;;;;10.78;89.23;101979.25;4969445;28;20547;-53
2023/10/17 09:40:12;;;;;;;120.03;109.18;;;;;;;11.03;88.84;101967.09;4966472;28;20667;-53
2023/10/17 09:42:44;;;;;;;114.18;103.38;;;;;;;10.81;88.25;101969.38;4968666;28;20189;-50
2023/10/17 09:45:14;;;;;;;151.52;135.98;;;;;;;10.89;87.62;101971.91;4956229;28;20289;-51
2023/10/17 09:47:44;;;;;;;152.63;137.15;;;;;;;10.99;86.94;101961.84;4952289;28;20192;-50
2023/10/17 09:50:13;;;;;;;107.10;98.25;;;;;;;11.25;87.05;101963.94;4966414;28;20249;-51
2023/10/17 09:52:39;;;;;;;4.22;1.95;;;;;;;11.55;86.50;101965.91;4968294;28;20205;-51
2023/10/17 09:55:09;;;;;;;9.50;8.77;;;;;;;11.47;85.55;101970.56;4970519;28;20202;-53
2023/10/17 09:57:41;;;;;;;9.77;8.95;;;;;;;11.56;84.99;101966.78;4970954;28;20233;-51
2023/10/17 10:00:15;;;;;;;6.47;3.22;;;;;;;11.43;84.45;101963.50;4963442;28;20228;-51
2023/10/17 10:02:43;;;;;;;3.90;1.95;;;;;;;11.50;84.58;101966.94;4969995;28;20177;-50
2023/10/17 10:05:24;;;;;;;8.38;7.28;;;;;;;11.82;84.53;101970.66;4951969;28;20265;-51
2023/10/17 10:07:50;;;;;;;6.22;4.10;;;;;;;11.80;83.75;101954.56;4971799;28;20304;-53
2023/10/17 10:10:42;;;;;;;8.63;4.30;;;;;;;12.18;83.17;101949.13;4970000;28;20186;-47
2023/10/17 10:13:13;;;;;;;9.32;8.57;;;;;;;12.09;83.01;101944.91;4960486;28;20214;-51
2023/10/17 10:15:58;;;;;;;14.70;13.60;;;;;;;11.95;82.19;101932.72;4967836;28;20244;-51
2023/10/17 10:18:32;;;;;;;53.17;49.67;;;;;;;11.51;81.54;101923.09;4973239;28;20197;-51
2023/10/17 10:20:58;;;;;;;85.95;79.38;;;;;;;11.59;81.44;101918.41;4964117;28;20664;-49
2023/10/17 10:23:35;;;;;;;66.55;62.33;;;;;;;11.72;81.61;101924.38;4968537;28;20191;-50
2023/10/17 10:26:13;;;;;;;3.65;1.73;;;;;;;11.92;80.78;101922.06;4973307;28;20186;-50
2023/10/17 10:28:43;;;;;;;31.42;29.73;;;;;;;11.83;79.57;101903.50;4972631;28;20256;-52
2023/10/17 10:31:24;;;;;;;65.88;61.75;;;;;;;11.72;78.70;101895.72;4967160;28;20189;-51
2023/10/17 10:33:55;;;;;;;55.78;52.42;;;;;;;11.97;78.43;101902.28;4964466;28;20205;-50
2023/10/17 10:36:23;;;;;;;5.60;5.13;;;;;;;11.93;78.06;101896.97;4968678;28;20190;-50
2023/10/17 10:38:49;;;;;;;22.10;20.75;;;;;;;12.02;77.78;101895.84;4970430;28;20197;-49
2023/10/17 10:41:15;;;;;;;6.43;5.88;;;;;;;12.14;78.30;101902.69;4972699;28;20214;-50
2023/10/17 10:43:45;;;;;;;18.48;16.90;;;;;;;11.80;78.28;101906.22;4958306;28;20237;-49
2023/10/17 10:46:11;;;;;;;19.58;18.45;;;;;;;11.75;78.24;101908.16;4968550;28;20325;-51
2023/10/17 10:48:46;;;;;;;8.85;8.30;;;;;;;11.55;78.23;101901.50;4969991;28;20277;-49
2023/10/17 10:51:17;;;;;;;14.68;13.07;;;;;;;11.42;78.21;101894.69;5087912;23;20193;-44
2023/10/17 10:53:54;;;;;;;41.20;38.67;;;;;;;11.38;78.72;101909.09;4964078;28;20221;-45
2023/10/17 10:56:25;;;;;;;38.40;36.05;;;;;;;11.69;78.75;101901.13;4974424;28;20189;-45
2023/10/17 10:58:55;;;;;;;36.40;34.15;;;;;;;11.85;78.77;101898.06;4979024;28;20196;-46
2023/10/17 11:01:27;;;;;;;26.27;24.85;;;;;;;11.97;78.76;101899.59;4970294;28;20297;-44
2023/10/17 11:03:53;;;;;;;46.58;43.80;;;;;;;12.14;78.56;101903.56;4972575;28;20600;-45
2023/10/17 11:06:23;;;;;;;61.13;57.25;;;;;;;12.08;78.23;101902.84;4975109;28;20205;-45
2023/10/17 11:08:49;;;;;;;10.43;9.68;;;;;;;12.09;78.24;101896.53;4971328;28;20249;-46
2023/10/17 11:11:16;;;;;;;13.18;12.10;;;;;;;12.37;77.82;101891.28;4971134;28;20602;-46
2023/10/17 11:13:52;;;;;;;6.47;3.05;;;;;;;12.27;77.45;101887.13;4972676;28;20205;-47
2023/10/17 11:16:21;;;;;;;11.60;10.65;;;;;;;12.26;77.17;101883.53;4977618;28;20244;-47
2023/10/17 11:18:47;;;;;;;2.90;1.27;;;;;;;12.32;77.15;101875.28;4971943;28;20189;-47
2023/10/17 11:21:16;;;;;;;3.50;1.25;;;;;;;12.30;76.74;101876.25;4974578;28;20267;-46
2023/10/17 11:23:53;;;;;;;10.13;9.40;;;;;;;12.03;76.42;101875.25;4972688;28;20269;-45
2023/10/17 11:26:23;;;;;;;5.18;4.57;;;;;;;12.14;76.12;101870.44;4973522;28;20564;-46
2023/10/17 11:28:52;;;;;;;2.38;1.25;;;;;;;12.08;75.96;101866.13;4973742;28;20182;-46
2023/10/17 11:31:21;;;;;;;4.13;2.80;;;;;;;12.10;75.39;101858.03;4974719;28;20233;-46
2023/10/17 11:34:04;;;;;;;26.05;24.63;;;;;;;11.97;75.58;101860.16;4973993;28;20336;-47
2023/10/17 11:36:51;;;;;;;7.13;6.78;;;;;;;12.46;75.72;101864.16;4973499;28;20728;-45
2023/10/17 11:39:18;;;;;;;6.07;5.68;;;;;;;12.24;75.00;101845.06;4970968;28;20295;-47
2023/10/17 11:41:53;;;;;;;21.30;19.83;;;;;;;12.13;75.02;101857.94;4980849;28;20247;-47
2023/10/17 11:44:23;;;;;;;20.15;18.90;;;;;;;12.42;75.13;101857.09;4971753;28;20213;-48
2023/10/17 11:46:58;;;;;;;18.50;17.45;;;;;;;12.34;74.88;101851.94;4974804;28;20570;-47
2023/10/17 11:49:27;;;;;;;6.55;5.35;;;;;;;12.36;74.78;101850.09;4976873;28;20244;-46
2023/10/17 11:52:13;;;;;;;11.02;10.10;;;;;;;12.46;74.25;101839.97;4977271;28;20265;-48
2023/10/17 11:55:00;;;;;;;19.30;18.27;;;;;;;12.52;73.94;101836.19;4974816;28;20244;-46
2023/10/17 11:57:28;;;;;;;5.35;4.82;;;;;;;12.30;73.59;101831.47;4972579;28;20193;-47
2023/10/17 11:59:57;;;;;;;8.48;6.43;;;;;;;12.09;74.06;101834.75;4974664;28;20212;-47
2023/10/17 12:02:24;;;;;;;2.53;1.58;;;;;;;12.52;73.44;101833.50;4971864;28;20649;-42
2023/10/17 12:04:49;;;;;;;4.30;2.03;;;;;;;12.45;73.42;101826.56;4975107;28;20201;-45
2023/10/17 12:07:15;;;;;;;3.80;3.47;;;;;;;12.56;73.67;101827.13;4973127;28;20548;-45
2023/10/17 12:09:40;;;;;;;6.22;5.70;;;;;;;12.13;74.16;101837.34;4972697;28;20182;-46
2023/10/17 12:12:06;;;;;;;4.38;3.05;;;;;;;12.23;74.10;101829.88;4972930;28;20181;-45
2023/10/17 12:14:33;;;;;;;7.25;6.68;;;;;;;12.26;74.42;101837.84;4976359;28;20228;-47
2023/10/17 12:17:00;;;;;;;34.30;32.53;;;;;;;12.01;74.65;101848.41;4975880;28;20205;-47
2023/10/17 12:19:27;;;;;;;26.00;24.55;;;;;;;12.01;74.59;101837.69;4976273;28;20186;-46
2023/10/17 12:21:53;;;;;;;56.28;53.08;;;;;;;11.90;74.77;101847.84;4973363;28;20189;-46
2023/10/17 12:24:28;;;;;;;39.47;37.13;;;;;;;12.09;74.92;101845.50;4974546;28;20221;-45
2023/10/17 12:26:55;;;;;;;19.48;18.33;;;;;;;12.12;74.98;101845.44;4973031;28;20200;-45
2023/10/17 12:29:25;;;;;;;18.40;17.05;;;;;;;11.74;75.24;101839.25;4974270;28;20289;-47
2023/10/17 12:31:54;;;;;;;90.07;84.32;;;;;;;11.82;75.43;101839.94;4973205;28;20550;-45
2023/10/17 12:34:20;;;;;;;26.05;24.40;;;;;;;11.81;76.03;101848.06;4975112;28;20213;-46
2023/10/17 12:36:46;;;;;;;21.65;20.38;;;;;;;11.77;76.38;101849.06;4959064;28;20197;-46
2023/10/17 12:39:14;;;;;;;26.83;25.33;;;;;;;11.87;76.24;101839.81;4975323;28;20196;-46
2023/10/17 12:41:40;;;;;;;72.47;68.03;;;;;;;11.74;76.25;101852.69;4971366;28;20193;-45
2023/10/17 12:44:05;;;;;;;80.70;75.72;;;;;;;11.84;76.64;101850.66;4976269;28;20282;-47
2023/10/17 12:46:31;;;;;;;27.08;25.13;;;;;;;11.78;76.83;101850.81;4978205;28;20192;-47
2023/10/17 12:48:57;;;;;;;51.15;48.20;;;;;;;11.59;76.87;101851.31;4976143;28;20178;-45
2023/10/17 12:51:23;;;;;;;21.73;20.35;;;;;;;11.78;76.96;101843.63;4979150;28;20183;-46
2023/10/17 12:53:51;;;;;;;38.13;35.55;;;;;;;11.71;77.40;101850.97;4977608;28;20711;-47
2023/10/17 12:56:18;;;;;;;6.95;6.50;;;;;;;11.76;77.75;101848.16;4973974;28;20620;-45
2023/10/17 12:58:44;;;;;;;33.67;31.35;;;;;;;11.82;77.73;101856.06;4976756;28;20186;-45
2023/10/17 13:01:12;;;;;;;78.97;74.18;;;;;;;11.85;77.96;101849.72;4975294;28;20208;-46
2023/10/17 13:03:38;;;;;;;60.33;56.38;;;;;;;11.60;77.99;101847.69;4979249;28;20539;-46
2023/10/17 13:06:05;;;;;;;113.72;105.82;;;;;;;11.59;78.52;101853.09;4973375;28;20186;-46
2023/10/17 13:08:31;;;;;;;131.52;121.18;;;;;;;11.40;79.23;101855.38;4978000;28;20178;-46
2023/10/17 13:10:57;;;;;;;95.60;89.13;;;;;;;11.43;79.23;101863.34;4979336;28;20184;-47
2023/10/17 13:13:23;;;;;;;78.40;73.07;;;;;;;11.47;79.02;101841.75;4978367;28;20186;-47
2023/10/17 13:15:49;;;;;;;74.43;69.78;;;;;;;11.37;79.27;101856.34;4975292;28;20194;-46
2023/10/17 13:18:16;;;;;;;96.45;90.03;;;;;;;11.30;79.80;101847.56;4976485;28;20272;-46